HTSU

Sumbawanga Airport

Sumbawanga, Tanzania
METAR HTSU 241200Z 09003KT 9999 TSSHRA BKN018 FEW020CB 18/17 Q1018
Observed Flight Rules
Feb-24 @ 12:00 UTC (8 hours ago) Marginal Visual Flight Rules
Wind Visibility Clouds Conditions
90° at 3 knots 10,000+ meters
  • Broken at 1,800' AGL
  • Few at 2,000' AGL
  • Rain
  • Thunderstorm
Temperatures Readings
Current 18°C / 64°F
Dewpoint 17°C / 63°F
Humidity 94%
Altimeter 30.06" Hg
Pressure 1018 hPa
Elevation 1804
METAR HTSU 241200Z 09003KT 9999 TSSHRA BKN018 FEW020CB 18/17 Q1018
Observed Flight Rules
Feb-24 @ 12:00 UTC
(8 hours ago)
MVFR
Wind Visibility
90° at 3 knots 10,000+ meters
Clouds
  • Broken at 1,800' AGL
  • Few at 2,000' AGL
Conditions
  • Rain
  • Thunderstorm
Temperature Dewpoint
18°C / 64°F 17°C / 63°F
Humidity Altimeter Pressure
94% 30.06" Hg 1018 hPa